sensor_id;sensor_type;location;lat;lon;timestamp;P1;durP1;ratioP1;P2;durP2;ratioP2
7375;SDS011;3728;42.266;24.944;2022-10-31T00:01:28;5.97;;;2.30;;
7375;SDS011;3728;42.266;24.944;2022-10-31T00:03:59;5.37;;;2.43;;
7375;SDS011;3728;42.266;24.944;2022-10-31T00:06:27;5.10;;;2.00;;
7375;SDS011;3728;42.266;24.944;2022-10-31T00:08:55;3.83;;;2.10;;
7375;SDS011;3728;42.266;24.944;2022-10-31T00:11:31;3.57;;;2.30;;
7375;SDS011;3728;42.266;24.944;2022-10-31T00:13:59;7.60;;;2.37;;
7375;SDS011;3728;42.266;24.944;2022-10-31T00:16:28;5.73;;;2.50;;
7375;SDS011;3728;42.266;24.944;2022-10-31T00:19:00;2.60;;;2.10;;
7375;SDS011;3728;42.266;24.944;2022-10-31T00:21:31;3.80;;;1.93;;
7375;SDS011;3728;42.266;24.944;2022-10-31T00:23:59;4.07;;;2.30;;
7375;SDS011;3728;42.266;24.944;2022-10-31T00:26:28;10.77;;;3.00;;
7375;SDS011;3728;42.266;24.944;2022-10-31T00:28:57;4.93;;;2.70;;
7375;SDS011;3728;42.266;24.944;2022-10-31T00:31:26;7.17;;;3.17;;
7375;SDS011;3728;42.266;24.944;2022-10-31T00:33:54;5.67;;;3.40;;
7375;SDS011;3728;42.266;24.944;2022-10-31T00:36:21;8.00;;;3.17;;
7375;SDS011;3728;42.266;24.944;2022-10-31T00:38:49;9.90;;;3.40;;
7375;SDS011;3728;42.266;24.944;2022-10-31T00:41:17;6.70;;;3.33;;
7375;SDS011;3728;42.266;24.944;2022-10-31T00:43:45;7.97;;;3.17;;
7375;SDS011;3728;42.266;24.944;2022-10-31T00:46:13;7.67;;;2.97;;
7375;SDS011;3728;42.266;24.944;2022-10-31T00:48:41;7.07;;;3.50;;
7375;SDS011;3728;42.266;24.944;2022-10-31T00:51:09;6.87;;;3.43;;
7375;SDS011;3728;42.266;24.944;2022-10-31T00:53:39;8.73;;;3.10;;
7375;SDS011;3728;42.266;24.944;2022-10-31T00:56:07;9.40;;;3.53;;
7375;SDS011;3728;42.266;24.944;2022-10-31T00:58:34;10.27;;;3.17;;
7375;SDS011;3728;42.266;24.944;2022-10-31T01:01:02;11.80;;;3.63;;
7375;SDS011;3728;42.266;24.944;2022-10-31T01:03:31;5.97;;;3.30;;
7375;SDS011;3728;42.266;24.944;2022-10-31T01:06:04;9.60;;;3.40;;
7375;SDS011;3728;42.266;24.944;2022-10-31T01:08:36;9.37;;;3.43;;
7375;SDS011;3728;42.266;24.944;2022-10-31T01:11:07;7.53;;;3.03;;
7375;SDS011;3728;42.266;24.944;2022-10-31T01:13:44;6.80;;;2.97;;
7375;SDS011;3728;42.266;24.944;2022-10-31T01:16:16;5.43;;;2.93;;
7375;SDS011;3728;42.266;24.944;2022-10-31T01:18:49;6.40;;;3.47;;
7375;SDS011;3728;42.266;24.944;2022-10-31T01:21:19;7.23;;;3.40;;
7375;SDS011;3728;42.266;24.944;2022-10-31T01:23:50;9.47;;;2.93;;
7375;SDS011;3728;42.266;24.944;2022-10-31T01:26:21;6.00;;;2.97;;
7375;SDS011;3728;42.266;24.944;2022-10-31T01:28:57;7.77;;;3.20;;
7375;SDS011;3728;42.266;24.944;2022-10-31T01:31:35;6.97;;;2.90;;
7375;SDS011;3728;42.266;24.944;2022-10-31T01:34:05;7.83;;;3.53;;
7375;SDS011;3728;42.266;24.944;2022-10-31T01:36:35;12.37;;;3.53;;
7375;SDS011;3728;42.266;24.944;2022-10-31T01:39:06;7.17;;;3.43;;
7375;SDS011;3728;42.266;24.944;2022-10-31T01:41:41;8.30;;;3.13;;
7375;SDS011;3728;42.266;24.944;2022-10-31T01:49:42;7.13;;;3.77;;
7375;SDS011;3728;42.266;24.944;2022-10-31T01:55:00;11.80;;;3.90;;
7375;SDS011;3728;42.266;24.944;2022-10-31T01:57:59;9.67;;;3.80;;
7375;SDS011;3728;42.266;24.944;2022-10-31T02:00:36;9.47;;;4.03;;
7375;SDS011;3728;42.266;24.944;2022-10-31T02:03:06;7.07;;;4.20;;
7375;SDS011;3728;42.266;24.944;2022-10-31T02:05:33;6.70;;;3.80;;
7375;SDS011;3728;42.266;24.944;2022-10-31T02:10:57;8.00;;;3.40;;
7375;SDS011;3728;42.266;24.944;2022-10-31T02:13:27;5.83;;;3.60;;
7375;SDS011;3728;42.266;24.944;2022-10-31T02:15:57;6.40;;;3.27;;
7375;SDS011;3728;42.266;24.944;2022-10-31T02:18:28;6.90;;;3.30;;
7375;SDS011;3728;42.266;24.944;2022-10-31T02:20:58;9.47;;;3.97;;
7375;SDS011;3728;42.266;24.944;2022-10-31T02:45:58;7.43;;;4.03;;
7375;SDS011;3728;42.266;24.944;2022-10-31T02:48:52;5.80;;;2.93;;
7375;SDS011;3728;42.266;24.944;2022-10-31T02:51:23;7.30;;;3.50;;
7375;SDS011;3728;42.266;24.944;2022-10-31T02:53:51;4.97;;;3.10;;
7375;SDS011;3728;42.266;24.944;2022-10-31T02:56:19;6.50;;;2.93;;
7375;SDS011;3728;42.266;24.944;2022-10-31T02:59:02;7.97;;;2.47;;
7375;SDS011;3728;42.266;24.944;2022-10-31T03:01:33;8.67;;;3.07;;
7375;SDS011;3728;42.266;24.944;2022-10-31T03:04:29;8.03;;;3.50;;
7375;SDS011;3728;42.266;24.944;2022-10-31T03:07:18;7.73;;;2.80;;
7375;SDS011;3728;42.266;24.944;2022-10-31T03:15:41;7.27;;;3.13;;
7375;SDS011;3728;42.266;24.944;2022-10-31T03:18:15;5.60;;;2.87;;
7375;SDS011;3728;42.266;24.944;2022-10-31T03:21:20;10.20;;;3.13;;
7375;SDS011;3728;42.266;24.944;2022-10-31T03:23:58;6.23;;;3.27;;
7375;SDS011;3728;42.266;24.944;2022-10-31T03:26:28;9.10;;;3.00;;
7375;SDS011;3728;42.266;24.944;2022-10-31T03:28:58;12.03;;;3.43;;
7375;SDS011;3728;42.266;24.944;2022-10-31T03:31:40;4.03;;;3.00;;
7375;SDS011;3728;42.266;24.944;2022-10-31T03:34:35;10.53;;;3.03;;
7375;SDS011;3728;42.266;24.944;2022-10-31T03:37:07;7.80;;;3.00;;
7375;SDS011;3728;42.266;24.944;2022-10-31T03:39:38;5.87;;;3.10;;
7375;SDS011;3728;42.266;24.944;2022-10-31T03:42:10;8.47;;;2.83;;
7375;SDS011;3728;42.266;24.944;2022-10-31T03:44:53;7.23;;;2.63;;
7375;SDS011;3728;42.266;24.944;2022-10-31T03:47:33;3.90;;;2.70;;
7375;SDS011;3728;42.266;24.944;2022-10-31T03:50:07;6.27;;;3.27;;
7375;SDS011;3728;42.266;24.944;2022-10-31T03:52:39;6.63;;;3.00;;
7375;SDS011;3728;42.266;24.944;2022-10-31T03:55:24;6.00;;;3.10;;
7375;SDS011;3728;42.266;24.944;2022-10-31T03:58:27;9.33;;;3.50;;
7375;SDS011;3728;42.266;24.944;2022-10-31T04:01:05;6.60;;;3.80;;
7375;SDS011;3728;42.266;24.944;2022-10-31T04:03:39;8.47;;;3.60;;
7375;SDS011;3728;42.266;24.944;2022-10-31T04:06:09;13.03;;;3.90;;
7375;SDS011;3728;42.266;24.944;2022-10-31T04:08:42;9.73;;;3.90;;
7375;SDS011;3728;42.266;24.944;2022-10-31T04:11:18;6.87;;;3.50;;
7375;SDS011;3728;42.266;24.944;2022-10-31T04:14:09;5.50;;;3.40;;
7375;SDS011;3728;42.266;24.944;2022-10-31T04:16:39;6.53;;;3.60;;
7375;SDS011;3728;42.266;24.944;2022-10-31T04:19:11;7.80;;;3.40;;
7375;SDS011;3728;42.266;24.944;2022-10-31T04:21:40;10.07;;;4.07;;
7375;SDS011;3728;42.266;24.944;2022-10-31T04:24:10;8.33;;;4.07;;
7375;SDS011;3728;42.266;24.944;2022-10-31T04:26:39;13.97;;;3.73;;
7375;SDS011;3728;42.266;24.944;2022-10-31T04:29:06;6.73;;;3.83;;
7375;SDS011;3728;42.266;24.944;2022-10-31T04:31:34;8.83;;;3.63;;
7375;SDS011;3728;42.266;24.944;2022-10-31T04:34:01;10.73;;;3.30;;
7375;SDS011;3728;42.266;24.944;2022-10-31T04:36:29;11.87;;;3.70;;
7375;SDS011;3728;42.266;24.944;2022-10-31T04:38:57;9.93;;;3.93;;
7375;SDS011;3728;42.266;24.944;2022-10-31T04:41:34;6.10;;;3.50;;
7375;SDS011;3728;42.266;24.944;2022-10-31T04:44:08;5.40;;;3.63;;
7375;SDS011;3728;42.266;24.944;2022-10-31T04:46:35;11.13;;;3.97;;
7375;SDS011;3728;42.266;24.944;2022-10-31T04:49:03;7.80;;;3.77;;
7375;SDS011;3728;42.266;24.944;2022-10-31T04:51:31;7.93;;;3.57;;
7375;SDS011;3728;42.266;24.944;2022-10-31T04:53:59;12.97;;;3.80;;
7375;SDS011;3728;42.266;24.944;2022-10-31T04:56:27;7.03;;;2.83;;
7375;SDS011;3728;42.266;24.944;2022-10-31T04:58:57;7.73;;;3.27;;
7375;SDS011;3728;42.266;24.944;2022-10-31T05:01:29;11.90;;;3.30;;
7375;SDS011;3728;42.266;24.944;2022-10-31T05:03:58;4.33;;;3.20;;
7375;SDS011;3728;42.266;24.944;2022-10-31T05:06:27;9.03;;;3.53;;
7375;SDS011;3728;42.266;24.944;2022-10-31T05:08:56;8.27;;;3.60;;
7375;SDS011;3728;42.266;24.944;2022-10-31T05:11:23;10.27;;;3.87;;
7375;SDS011;3728;42.266;24.944;2022-10-31T05:13:54;6.73;;;3.17;;
7375;SDS011;3728;42.266;24.944;2022-10-31T05:16:59;10.73;;;3.90;;
7375;SDS011;3728;42.266;24.944;2022-10-31T05:20:01;9.23;;;3.87;;
7375;SDS011;3728;42.266;24.944;2022-10-31T05:23:05;16.30;;;4.27;;
7375;SDS011;3728;42.266;24.944;2022-10-31T05:25:33;13.63;;;3.80;;
7375;SDS011;3728;42.266;24.944;2022-10-31T05:28:03;7.30;;;3.20;;
7375;SDS011;3728;42.266;24.944;2022-10-31T05:30:32;14.33;;;4.03;;
7375;SDS011;3728;42.266;24.944;2022-10-31T05:33:01;7.97;;;3.40;;
7375;SDS011;3728;42.266;24.944;2022-10-31T05:35:48;17.73;;;3.70;;
7375;SDS011;3728;42.266;24.944;2022-10-31T05:38:34;12.97;;;3.50;;
7375;SDS011;3728;42.266;24.944;2022-10-31T05:41:10;31.57;;;4.83;;
7375;SDS011;3728;42.266;24.944;2022-10-31T05:43:44;39.17;;;5.50;;
7375;SDS011;3728;42.266;24.944;2022-10-31T05:46:14;29.43;;;4.47;;
7375;SDS011;3728;42.266;24.944;2022-10-31T05:49:00;11.73;;;4.00;;
7375;SDS011;3728;42.266;24.944;2022-10-31T05:51:46;42.83;;;5.17;;
7375;SDS011;3728;42.266;24.944;2022-10-31T05:54:14;27.63;;;6.20;;
7375;SDS011;3728;42.266;24.944;2022-10-31T05:56:44;18.70;;;4.90;;
7375;SDS011;3728;42.266;24.944;2022-10-31T05:59:11;26.40;;;5.63;;
7375;SDS011;3728;42.266;24.944;2022-10-31T06:01:40;34.67;;;6.40;;
7375;SDS011;3728;42.266;24.944;2022-10-31T06:04:23;23.50;;;5.33;;
7375;SDS011;3728;42.266;24.944;2022-10-31T06:06:51;25.87;;;6.17;;
7375;SDS011;3728;42.266;24.944;2022-10-31T06:09:19;22.57;;;5.60;;
7375;SDS011;3728;42.266;24.944;2022-10-31T06:11:49;24.77;;;6.23;;
7375;SDS011;3728;42.266;24.944;2022-10-31T06:14:37;34.43;;;6.80;;
7375;SDS011;3728;42.266;24.944;2022-10-31T06:17:04;165.10;;;14.53;;
7375;SDS011;3728;42.266;24.944;2022-10-31T06:19:47;71.27;;;10.07;;
7375;SDS011;3728;42.266;24.944;2022-10-31T06:22:19;60.50;;;8.83;;
7375;SDS011;3728;42.266;24.944;2022-10-31T06:24:47;41.47;;;7.83;;
7375;SDS011;3728;42.266;24.944;2022-10-31T06:27:29;17.07;;;5.03;;
7375;SDS011;3728;42.266;24.944;2022-10-31T06:30:02;10.27;;;4.07;;
7375;SDS011;3728;42.266;24.944;2022-10-31T06:32:34;11.37;;;3.63;;
7375;SDS011;3728;42.266;24.944;2022-10-31T06:35:01;11.60;;;3.77;;
7375;SDS011;3728;42.266;24.944;2022-10-31T06:37:32;8.87;;;3.50;;
7375;SDS011;3728;42.266;24.944;2022-10-31T06:40:08;8.17;;;3.30;;
7375;SDS011;3728;42.266;24.944;2022-10-31T06:42:59;8.07;;;3.00;;
7375;SDS011;3728;42.266;24.944;2022-10-31T06:45:29;11.13;;;3.13;;
7375;SDS011;3728;42.266;24.944;2022-10-31T06:48:13;9.33;;;3.60;;
7375;SDS011;3728;42.266;24.944;2022-10-31T06:51:10;11.20;;;3.97;;
7375;SDS011;3728;42.266;24.944;2022-10-31T06:53:37;10.00;;;3.70;;
7375;SDS011;3728;42.266;24.944;2022-10-31T06:56:07;6.33;;;3.57;;
7375;SDS011;3728;42.266;24.944;2022-10-31T06:58:39;8.73;;;3.97;;
7375;SDS011;3728;42.266;24.944;2022-10-31T07:01:09;12.13;;;3.80;;
7375;SDS011;3728;42.266;24.944;2022-10-31T07:03:41;8.10;;;3.80;;
7375;SDS011;3728;42.266;24.944;2022-10-31T07:06:08;10.30;;;3.23;;
7375;SDS011;3728;42.266;24.944;2022-10-31T07:08:37;15.07;;;3.80;;
7375;SDS011;3728;42.266;24.944;2022-10-31T07:11:05;9.70;;;3.60;;
7375;SDS011;3728;42.266;24.944;2022-10-31T07:13:33;9.30;;;4.20;;
7375;SDS011;3728;42.266;24.944;2022-10-31T07:16:05;17.43;;;7.23;;
7375;SDS011;3728;42.266;24.944;2022-10-31T07:18:34;15.23;;;7.13;;
7375;SDS011;3728;42.266;24.944;2022-10-31T07:21:07;16.70;;;8.50;;
7375;SDS011;3728;42.266;24.944;2022-10-31T07:23:37;16.13;;;6.47;;
7375;SDS011;3728;42.266;24.944;2022-10-31T07:26:23;10.97;;;5.43;;
7375;SDS011;3728;42.266;24.944;2022-10-31T07:28:52;12.30;;;5.50;;
7375;SDS011;3728;42.266;24.944;2022-10-31T07:31:22;12.40;;;5.60;;
7375;SDS011;3728;42.266;24.944;2022-10-31T07:33:55;17.70;;;6.23;;
7375;SDS011;3728;42.266;24.944;2022-10-31T07:36:26;16.27;;;7.83;;
7375;SDS011;3728;42.266;24.944;2022-10-31T07:38:58;14.37;;;7.83;;
7375;SDS011;3728;42.266;24.944;2022-10-31T07:41:26;18.27;;;7.20;;
7375;SDS011;3728;42.266;24.944;2022-10-31T07:43:54;11.87;;;7.23;;
7375;SDS011;3728;42.266;24.944;2022-10-31T07:46:40;14.03;;;6.03;;
7375;SDS011;3728;42.266;24.944;2022-10-31T07:49:33;16.13;;;6.13;;
7375;SDS011;3728;42.266;24.944;2022-10-31T07:52:19;7.83;;;3.97;;
7375;SDS011;3728;42.266;24.944;2022-10-31T07:55:05;21.33;;;4.00;;
7375;SDS011;3728;42.266;24.944;2022-10-31T07:57:34;17.63;;;3.80;;
7375;SDS011;3728;42.266;24.944;2022-10-31T08:00:06;7.30;;;2.80;;
7375;SDS011;3728;42.266;24.944;2022-10-31T08:02:45;11.40;;;3.37;;
7375;SDS011;3728;42.266;24.944;2022-10-31T08:05:51;13.77;;;3.27;;
7375;SDS011;3728;42.266;24.944;2022-10-31T08:08:32;14.03;;;3.50;;
7375;SDS011;3728;42.266;24.944;2022-10-31T08:11:05;8.57;;;3.00;;
7375;SDS011;3728;42.266;24.944;2022-10-31T08:13:33;5.50;;;3.03;;
7375;SDS011;3728;42.266;24.944;2022-10-31T08:16:01;6.90;;;3.00;;
7375;SDS011;3728;42.266;24.944;2022-10-31T08:18:34;10.97;;;3.60;;
7375;SDS011;3728;42.266;24.944;2022-10-31T08:21:05;9.83;;;3.07;;
7375;SDS011;3728;42.266;24.944;2022-10-31T08:23:34;7.83;;;2.70;;
7375;SDS011;3728;42.266;24.944;2022-10-31T08:26:04;9.40;;;3.67;;
7375;SDS011;3728;42.266;24.944;2022-10-31T08:28:32;7.30;;;2.83;;
7375;SDS011;3728;42.266;24.944;2022-10-31T08:31:01;10.63;;;3.20;;
7375;SDS011;3728;42.266;24.944;2022-10-31T08:33:54;10.60;;;3.47;;
7375;SDS011;3728;42.266;24.944;2022-10-31T08:36:45;7.60;;;2.90;;
7375;SDS011;3728;42.266;24.944;2022-10-31T08:39:19;13.68;;;3.03;;
7375;SDS011;3728;42.266;24.944;2022-10-31T08:41:48;7.63;;;3.03;;
7375;SDS011;3728;42.266;24.944;2022-10-31T08:44:16;5.60;;;2.63;;
7375;SDS011;3728;42.266;24.944;2022-10-31T08:46:44;6.05;;;2.83;;
7375;SDS011;3728;42.266;24.944;2022-10-31T08:49:12;7.57;;;3.05;;
7375;SDS011;3728;42.266;24.944;2022-10-31T08:51:41;8.55;;;2.83;;
7375;SDS011;3728;42.266;24.944;2022-10-31T08:54:09;8.95;;;3.13;;
7375;SDS011;3728;42.266;24.944;2022-10-31T08:56:56;15.27;;;3.50;;
7375;SDS011;3728;42.266;24.944;2022-10-31T08:59:38;7.97;;;3.13;;
7375;SDS011;3728;42.266;24.944;2022-10-31T09:02:21;7.47;;;2.78;;
7375;SDS011;3728;42.266;24.944;2022-10-31T09:04:52;11.73;;;3.22;;
7375;SDS011;3728;42.266;24.944;2022-10-31T09:07:19;11.43;;;3.03;;
7375;SDS011;3728;42.266;24.944;2022-10-31T09:09:47;7.95;;;2.65;;
7375;SDS011;3728;42.266;24.944;2022-10-31T09:12:17;7.75;;;2.80;;
7375;SDS011;3728;42.266;24.944;2022-10-31T09:15:03;9.55;;;3.17;;
7375;SDS011;3728;42.266;24.944;2022-10-31T09:17:49;17.60;;;3.58;;
7375;SDS011;3728;42.266;24.944;2022-10-31T09:20:29;8.32;;;2.75;;
7375;SDS011;3728;42.266;24.944;2022-10-31T09:22:59;9.10;;;2.88;;
7375;SDS011;3728;42.266;24.944;2022-10-31T09:25:30;10.73;;;2.80;;
7375;SDS011;3728;42.266;24.944;2022-10-31T09:28:22;10.13;;;2.58;;
7375;SDS011;3728;42.266;24.944;2022-10-31T09:30:52;7.25;;;2.85;;
7375;SDS011;3728;42.266;24.944;2022-10-31T09:33:44;6.10;;;2.42;;
7375;SDS011;3728;42.266;24.944;2022-10-31T09:36:42;4.18;;;2.58;;
7375;SDS011;3728;42.266;24.944;2022-10-31T09:39:17;5.72;;;2.30;;
7375;SDS011;3728;42.266;24.944;2022-10-31T09:47:41;5.75;;;2.58;;
7375;SDS011;3728;42.266;24.944;2022-10-31T09:50:32;9.20;;;2.50;;
7375;SDS011;3728;42.266;24.944;2022-10-31T09:57:10;7.90;;;2.45;;
7375;SDS011;3728;42.266;24.944;2022-10-31T09:59:56;7.50;;;2.50;;
7375;SDS011;3728;42.266;24.944;2022-10-31T10:02:44;6.25;;;2.72;;
7375;SDS011;3728;42.266;24.944;2022-10-31T10:08:32;5.93;;;2.70;;
7375;SDS011;3728;42.266;24.944;2022-10-31T10:18:14;6.45;;;2.45;;
7375;SDS011;3728;42.266;24.944;2022-10-31T10:24:21;8.25;;;2.50;;
7375;SDS011;3728;42.266;24.944;2022-10-31T10:29:44;8.52;;;2.38;;
7375;SDS011;3728;42.266;24.944;2022-10-31T10:32:23;57.38;;;5.50;;
7375;SDS011;3728;42.266;24.944;2022-10-31T10:35:10;16.33;;;3.38;;
7375;SDS011;3728;42.266;24.944;2022-10-31T10:40:45;7.88;;;2.65;;
7375;SDS011;3728;42.266;24.944;2022-10-31T10:49:17;11.00;;;2.53;;
7375;SDS011;3728;42.266;24.944;2022-10-31T10:55:36;6.38;;;2.47;;
7375;SDS011;3728;42.266;24.944;2022-10-31T10:58:19;5.63;;;2.20;;
7375;SDS011;3728;42.266;24.944;2022-10-31T11:00:47;8.95;;;2.10;;
7375;SDS011;3728;42.266;24.944;2022-10-31T11:03:21;7.18;;;2.00;;
7375;SDS011;3728;42.266;24.944;2022-10-31T11:05:53;3.30;;;1.98;;
7375;SDS011;3728;42.266;24.944;2022-10-31T11:08:25;6.47;;;2.10;;
7375;SDS011;3728;42.266;24.944;2022-10-31T11:13:46;6.18;;;1.90;;
7375;SDS011;3728;42.266;24.944;2022-10-31T11:18:54;4.10;;;2.30;;
7375;SDS011;3728;42.266;24.944;2022-10-31T11:21:34;4.43;;;2.17;;
7375;SDS011;3728;42.266;24.944;2022-10-31T11:24:23;4.72;;;1.98;;
7375;SDS011;3728;42.266;24.944;2022-10-31T11:27:02;7.72;;;2.15;;
7375;SDS011;3728;42.266;24.944;2022-10-31T11:29:46;3.55;;;2.05;;
7375;SDS011;3728;42.266;24.944;2022-10-31T11:32:22;4.57;;;1.65;;
7375;SDS011;3728;42.266;24.944;2022-10-31T11:34:53;4.68;;;1.92;;
7375;SDS011;3728;42.266;24.944;2022-10-31T11:37:34;3.22;;;2.00;;
7375;SDS011;3728;42.266;24.944;2022-10-31T11:40:15;6.53;;;2.20;;
7375;SDS011;3728;42.266;24.944;2022-10-31T11:42:52;4.80;;;2.15;;
7375;SDS011;3728;42.266;24.944;2022-10-31T11:47:57;4.15;;;2.20;;
7375;SDS011;3728;42.266;24.944;2022-10-31T11:50:39;7.30;;;1.92;;
7375;SDS011;3728;42.266;24.944;2022-10-31T11:53:25;5.25;;;2.00;;
7375;SDS011;3728;42.266;24.944;2022-10-31T11:58:43;7.28;;;1.85;;
7375;SDS011;3728;42.266;24.944;2022-10-31T12:01:27;5.25;;;1.85;;
7375;SDS011;3728;42.266;24.944;2022-10-31T12:04:09;4.05;;;1.90;;
7375;SDS011;3728;42.266;24.944;2022-10-31T12:07:02;4.25;;;1.60;;
7375;SDS011;3728;42.266;24.944;2022-10-31T12:09:32;7.10;;;1.80;;
7375;SDS011;3728;42.266;24.944;2022-10-31T12:12:06;6.93;;;1.75;;
7375;SDS011;3728;42.266;24.944;2022-10-31T12:21:23;4.25;;;1.70;;
7375;SDS011;3728;42.266;24.944;2022-10-31T12:39:23;8.60;;;2.20;;
7375;SDS011;3728;42.266;24.944;2022-10-31T12:53:33;6.45;;;1.67;;
7375;SDS011;3728;42.266;24.944;2022-10-31T13:06:05;9.43;;;2.55;;
7375;SDS011;3728;42.266;24.944;2022-10-31T13:08:41;52.42;;;7.97;;
7375;SDS011;3728;42.266;24.944;2022-10-31T13:11:22;20.10;;;3.30;;
7375;SDS011;3728;42.266;24.944;2022-10-31T13:13:59;9.60;;;3.05;;
7375;SDS011;3728;42.266;24.944;2022-10-31T13:16:53;10.43;;;2.22;;
7375;SDS011;3728;42.266;24.944;2022-10-31T13:19:39;10.90;;;2.63;;
7375;SDS011;3728;42.266;24.944;2022-10-31T13:22:12;26.02;;;3.35;;
7375;SDS011;3728;42.266;24.944;2022-10-31T13:31:47;25.73;;;4.13;;
7375;SDS011;3728;42.266;24.944;2022-10-31T13:34:37;13.50;;;4.10;;
7375;SDS011;3728;42.266;24.944;2022-10-31T13:37:22;14.65;;;3.88;;
7375;SDS011;3728;42.266;24.944;2022-10-31T13:45:53;36.53;;;4.10;;
7375;SDS011;3728;42.266;24.944;2022-10-31T13:50:58;13.95;;;3.00;;
7375;SDS011;3728;42.266;24.944;2022-10-31T13:56:28;4.60;;;2.20;;
7375;SDS011;3728;42.266;24.944;2022-10-31T13:59:00;9.38;;;2.45;;
7375;SDS011;3728;42.266;24.944;2022-10-31T14:01:54;16.35;;;3.45;;
7375;SDS011;3728;42.266;24.944;2022-10-31T14:04:24;7.38;;;2.70;;
7375;SDS011;3728;42.266;24.944;2022-10-31T14:07:16;11.27;;;3.03;;
7375;SDS011;3728;42.266;24.944;2022-10-31T14:17:49;45.40;;;6.75;;
7375;SDS011;3728;42.266;24.944;2022-10-31T14:28:53;14.10;;;4.35;;
7375;SDS011;3728;42.266;24.944;2022-10-31T14:34:02;11.43;;;3.65;;
7375;SDS011;3728;42.266;24.944;2022-10-31T14:40:04;11.57;;;3.10;;
7375;SDS011;3728;42.266;24.944;2022-10-31T14:51:23;21.80;;;4.18;;
7375;SDS011;3728;42.266;24.944;2022-10-31T14:54:02;15.00;;;4.20;;
7375;SDS011;3728;42.266;24.944;2022-10-31T14:56:34;27.15;;;4.63;;
7375;SDS011;3728;42.266;24.944;2022-10-31T14:59:23;29.38;;;4.90;;
7375;SDS011;3728;42.266;24.944;2022-10-31T15:02:00;29.38;;;5.00;;
7375;SDS011;3728;42.266;24.944;2022-10-31T15:04:41;19.20;;;4.60;;
7375;SDS011;3728;42.266;24.944;2022-10-31T15:07:20;28.10;;;4.85;;
7375;SDS011;3728;42.266;24.944;2022-10-31T15:12:34;23.88;;;4.80;;
7375;SDS011;3728;42.266;24.944;2022-10-31T15:15:16;22.63;;;4.75;;
7375;SDS011;3728;42.266;24.944;2022-10-31T15:17:57;20.70;;;4.55;;
7375;SDS011;3728;42.266;24.944;2022-10-31T15:20:28;13.75;;;4.55;;
7375;SDS011;3728;42.266;24.944;2022-10-31T15:23:00;19.42;;;4.72;;
7375;SDS011;3728;42.266;24.944;2022-10-31T15:25:31;15.07;;;3.75;;
7375;SDS011;3728;42.266;24.944;2022-10-31T15:28:01;25.05;;;4.55;;
7375;SDS011;3728;42.266;24.944;2022-10-31T15:30:49;16.17;;;4.10;;
7375;SDS011;3728;42.266;24.944;2022-10-31T15:33:28;29.30;;;5.03;;
7375;SDS011;3728;42.266;24.944;2022-10-31T15:36:20;19.65;;;5.15;;
7375;SDS011;3728;42.266;24.944;2022-10-31T15:38:55;19.55;;;4.32;;
7375;SDS011;3728;42.266;24.944;2022-10-31T15:44:00;49.05;;;6.78;;
7375;SDS011;3728;42.266;24.944;2022-10-31T15:46:58;51.47;;;6.78;;
7375;SDS011;3728;42.266;24.944;2022-10-31T15:52:04;34.20;;;5.72;;
7375;SDS011;3728;42.266;24.944;2022-10-31T15:57:46;44.25;;;6.75;;
7375;SDS011;3728;42.266;24.944;2022-10-31T16:03:05;37.17;;;7.25;;
7375;SDS011;3728;42.266;24.944;2022-10-31T16:08:35;45.97;;;10.82;;
7375;SDS011;3728;42.266;24.944;2022-10-31T16:13:37;55.00;;;12.15;;
7375;SDS011;3728;42.266;24.944;2022-10-31T16:16:22;41.97;;;10.35;;
7375;SDS011;3728;42.266;24.944;2022-10-31T16:19:11;52.08;;;11.52;;
7375;SDS011;3728;42.266;24.944;2022-10-31T16:22:03;52.05;;;11.20;;
7375;SDS011;3728;42.266;24.944;2022-10-31T16:24:48;53.28;;;10.77;;
7375;SDS011;3728;42.266;24.944;2022-10-31T16:27:28;31.45;;;9.35;;
7375;SDS011;3728;42.266;24.944;2022-10-31T16:29:59;25.23;;;8.88;;
7375;SDS011;3728;42.266;24.944;2022-10-31T16:32:34;23.45;;;7.20;;
7375;SDS011;3728;42.266;24.944;2022-10-31T16:35:36;17.13;;;6.35;;
7375;SDS011;3728;42.266;24.944;2022-10-31T16:38:05;21.20;;;5.80;;
7375;SDS011;3728;42.266;24.944;2022-10-31T16:40:37;16.45;;;5.07;;
7375;SDS011;3728;42.266;24.944;2022-10-31T16:43:08;12.25;;;4.88;;
7375;SDS011;3728;42.266;24.944;2022-10-31T16:45:42;10.75;;;4.82;;
7375;SDS011;3728;42.266;24.944;2022-10-31T16:48:15;11.38;;;4.40;;
7375;SDS011;3728;42.266;24.944;2022-10-31T16:50:48;15.70;;;4.47;;
7375;SDS011;3728;42.266;24.944;2022-10-31T16:53:17;15.25;;;5.88;;
7375;SDS011;3728;42.266;24.944;2022-10-31T16:55:48;16.17;;;5.70;;
7375;SDS011;3728;42.266;24.944;2022-10-31T16:58:23;14.15;;;6.38;;
7375;SDS011;3728;42.266;24.944;2022-10-31T17:01:10;15.43;;;7.00;;
7375;SDS011;3728;42.266;24.944;2022-10-31T17:03:42;14.27;;;6.30;;
7375;SDS011;3728;42.266;24.944;2022-10-31T17:06:12;16.42;;;6.57;;
7375;SDS011;3728;42.266;24.944;2022-10-31T17:08:41;15.20;;;5.30;;
7375;SDS011;3728;42.266;24.944;2022-10-31T17:11:15;18.10;;;8.57;;
7375;SDS011;3728;42.266;24.944;2022-10-31T17:13:47;19.05;;;9.05;;
7375;SDS011;3728;42.266;24.944;2022-10-31T17:16:35;17.25;;;6.75;;
7375;SDS011;3728;42.266;24.944;2022-10-31T17:19:24;12.98;;;6.88;;
7375;SDS011;3728;42.266;24.944;2022-10-31T17:21:54;12.63;;;6.47;;
7375;SDS011;3728;42.266;24.944;2022-10-31T17:24:21;11.83;;;5.70;;
7375;SDS011;3728;42.266;24.944;2022-10-31T17:27:13;12.07;;;4.60;;
7375;SDS011;3728;42.266;24.944;2022-10-31T17:29:48;10.35;;;4.53;;
7375;SDS011;3728;42.266;24.944;2022-10-31T17:32:17;10.77;;;4.45;;
7375;SDS011;3728;42.266;24.944;2022-10-31T17:34:46;11.75;;;4.47;;
7375;SDS011;3728;42.266;24.944;2022-10-31T17:37:35;10.27;;;4.47;;
7375;SDS011;3728;42.266;24.944;2022-10-31T17:40:10;15.70;;;5.10;;
7375;SDS011;3728;42.266;24.944;2022-10-31T17:42:40;8.50;;;5.43;;
7375;SDS011;3728;42.266;24.944;2022-10-31T17:45:16;17.55;;;7.57;;
7375;SDS011;3728;42.266;24.944;2022-10-31T17:47:51;21.85;;;7.05;;
7375;SDS011;3728;42.266;24.944;2022-10-31T17:50:23;11.00;;;4.83;;
7375;SDS011;3728;42.266;24.944;2022-10-31T17:52:57;12.87;;;4.53;;
7375;SDS011;3728;42.266;24.944;2022-10-31T17:55:25;11.77;;;4.07;;
7375;SDS011;3728;42.266;24.944;2022-10-31T17:57:58;14.83;;;4.90;;
7375;SDS011;3728;42.266;24.944;2022-10-31T18:00:26;11.60;;;5.37;;
7375;SDS011;3728;42.266;24.944;2022-10-31T18:02:54;12.00;;;5.43;;
7375;SDS011;3728;42.266;24.944;2022-10-31T18:05:26;22.67;;;5.47;;
7375;SDS011;3728;42.266;24.944;2022-10-31T18:07:54;13.80;;;5.37;;
7375;SDS011;3728;42.266;24.944;2022-10-31T18:10:31;11.50;;;4.43;;
7375;SDS011;3728;42.266;24.944;2022-10-31T18:13:03;17.63;;;5.03;;
7375;SDS011;3728;42.266;24.944;2022-10-31T18:15:31;12.80;;;5.30;;
7375;SDS011;3728;42.266;24.944;2022-10-31T18:18:06;15.27;;;5.63;;
7375;SDS011;3728;42.266;24.944;2022-10-31T18:20:37;10.70;;;4.67;;
7375;SDS011;3728;42.266;24.944;2022-10-31T18:23:06;15.40;;;4.90;;
7375;SDS011;3728;42.266;24.944;2022-10-31T18:25:34;13.97;;;5.47;;
7375;SDS011;3728;42.266;24.944;2022-10-31T18:28:06;12.33;;;4.70;;
7375;SDS011;3728;42.266;24.944;2022-10-31T18:30:40;14.97;;;5.50;;
7375;SDS011;3728;42.266;24.944;2022-10-31T18:33:29;14.80;;;4.90;;
7375;SDS011;3728;42.266;24.944;2022-10-31T18:36:06;15.17;;;5.07;;
7375;SDS011;3728;42.266;24.944;2022-10-31T18:38:41;10.27;;;4.80;;
7375;SDS011;3728;42.266;24.944;2022-10-31T18:41:15;16.50;;;4.63;;
7375;SDS011;3728;42.266;24.944;2022-10-31T18:43:43;13.03;;;4.87;;
7375;SDS011;3728;42.266;24.944;2022-10-31T18:46:11;22.13;;;5.23;;
7375;SDS011;3728;42.266;24.944;2022-10-31T18:48:41;9.53;;;4.17;;
7375;SDS011;3728;42.266;24.944;2022-10-31T18:51:13;11.73;;;4.23;;
7375;SDS011;3728;42.266;24.944;2022-10-31T18:53:50;9.20;;;3.37;;
7375;SDS011;3728;42.266;24.944;2022-10-31T18:56:28;8.10;;;3.60;;
7375;SDS011;3728;42.266;24.944;2022-10-31T18:58:58;7.60;;;3.50;;
7375;SDS011;3728;42.266;24.944;2022-10-31T19:01:29;10.07;;;4.10;;
7375;SDS011;3728;42.266;24.944;2022-10-31T19:03:58;8.10;;;3.27;;